sensor_id;sensor_type;location;lat;lon;timestamp;P1;durP1;ratioP1;P2;durP2;ratioP2
4001;SDS011;2015;48.670;9.060;2024-02-26T00:00:33;3.60;;;3.30;;
4001;SDS011;2015;48.670;9.060;2024-02-26T00:03:06;3.40;;;3.30;;
4001;SDS011;2015;48.670;9.060;2024-02-26T00:05:38;3.07;;;2.97;;
4001;SDS011;2015;48.670;9.060;2024-02-26T00:08:10;5.90;;;3.10;;
4001;SDS011;2015;48.670;9.060;2024-02-26T00:10:42;3.27;;;3.07;;
4001;SDS011;2015;48.670;9.060;2024-02-26T00:13:14;3.47;;;3.33;;
4001;SDS011;2015;48.670;9.060;2024-02-26T00:15:46;5.83;;;3.97;;
4001;SDS011;2015;48.670;9.060;2024-02-26T00:18:17;3.47;;;3.17;;
4001;SDS011;2015;48.670;9.060;2024-02-26T00:20:49;3.57;;;3.27;;
4001;SDS011;2015;48.670;9.060;2024-02-26T00:23:21;3.13;;;2.93;;
4001;SDS011;2015;48.670;9.060;2024-02-26T00:25:54;3.50;;;3.30;;
4001;SDS011;2015;48.670;9.060;2024-02-26T00:28:26;3.30;;;3.00;;
4001;SDS011;2015;48.670;9.060;2024-02-26T00:30:58;3.43;;;3.13;;
4001;SDS011;2015;48.670;9.060;2024-02-26T00:33:30;2.50;;;2.40;;
4001;SDS011;2015;48.670;9.060;2024-02-26T00:36:02;3.47;;;3.30;;
4001;SDS011;2015;48.670;9.060;2024-02-26T00:38:35;3.70;;;3.50;;
4001;SDS011;2015;48.670;9.060;2024-02-26T00:41:07;3.70;;;3.40;;
4001;SDS011;2015;48.670;9.060;2024-02-26T00:43:38;3.40;;;3.30;;
4001;SDS011;2015;48.670;9.060;2024-02-26T00:46:13;4.00;;;3.70;;
4001;SDS011;2015;48.670;9.060;2024-02-26T00:48:45;3.57;;;3.30;;
4001;SDS011;2015;48.670;9.060;2024-02-26T00:51:17;3.33;;;2.27;;
4001;SDS011;2015;48.670;9.060;2024-02-26T00:53:51;3.63;;;3.33;;
4001;SDS011;2015;48.670;9.060;2024-02-26T00:56:23;2.97;;;2.87;;
4001;SDS011;2015;48.670;9.060;2024-02-26T00:58:55;3.00;;;2.80;;
4001;SDS011;2015;48.670;9.060;2024-02-26T01:01:27;3.30;;;3.10;;
4001;SDS011;2015;48.670;9.060;2024-02-26T01:03:58;3.10;;;3.00;;
4001;SDS011;2015;48.670;9.060;2024-02-26T01:06:30;2.80;;;2.70;;
4001;SDS011;2015;48.670;9.060;2024-02-26T01:09:02;3.57;;;3.37;;
4001;SDS011;2015;48.670;9.060;2024-02-26T01:11:35;3.50;;;3.30;;
4001;SDS011;2015;48.670;9.060;2024-02-26T01:14:07;3.10;;;2.80;;
4001;SDS011;2015;48.670;9.060;2024-02-26T01:16:38;3.83;;;3.53;;
4001;SDS011;2015;48.670;9.060;2024-02-26T01:19:10;4.70;;;2.90;;
4001;SDS011;2015;48.670;9.060;2024-02-26T01:21:42;3.70;;;3.50;;
4001;SDS011;2015;48.670;9.060;2024-02-26T01:24:14;3.50;;;3.30;;
4001;SDS011;2015;48.670;9.060;2024-02-26T01:26:47;3.37;;;3.17;;
4001;SDS011;2015;48.670;9.060;2024-02-26T01:29:18;3.27;;;3.07;;
4001;SDS011;2015;48.670;9.060;2024-02-26T01:31:50;4.00;;;3.60;;
4001;SDS011;2015;48.670;9.060;2024-02-26T01:34:22;4.25;;;4.05;;
4001;SDS011;2015;48.670;9.060;2024-02-26T01:36:54;4.27;;;4.07;;
4001;SDS011;2015;48.670;9.060;2024-02-26T01:39:27;3.50;;;3.30;;
4001;SDS011;2015;48.670;9.060;2024-02-26T01:42:01;4.73;;;3.23;;
4001;SDS011;2015;48.670;9.060;2024-02-26T01:44:33;3.23;;;3.03;;
4001;SDS011;2015;48.670;9.060;2024-02-26T01:47:07;3.53;;;3.30;;
4001;SDS011;2015;48.670;9.060;2024-02-26T01:49:42;3.87;;;3.57;;
4001;SDS011;2015;48.670;9.060;2024-02-26T01:52:14;3.97;;;3.67;;
4001;SDS011;2015;48.670;9.060;2024-02-26T01:54:47;5.10;;;4.50;;
4001;SDS011;2015;48.670;9.060;2024-02-26T01:57:19;3.57;;;3.37;;
4001;SDS011;2015;48.670;9.060;2024-02-26T01:59:51;2.93;;;2.73;;
4001;SDS011;2015;48.670;9.060;2024-02-26T02:02:23;3.40;;;3.20;;
4001;SDS011;2015;48.670;9.060;2024-02-26T02:04:54;2.67;;;2.57;;
4001;SDS011;2015;48.670;9.060;2024-02-26T02:07:26;3.07;;;2.80;;
4001;SDS011;2015;48.670;9.060;2024-02-26T02:10:00;2.72;;;2.42;;
4001;SDS011;2015;48.670;9.060;2024-02-26T02:12:32;1.90;;;1.80;;
4001;SDS011;2015;48.670;9.060;2024-02-26T02:15:05;2.50;;;2.30;;
4001;SDS011;2015;48.670;9.060;2024-02-26T02:17:38;3.07;;;2.97;;
4001;SDS011;2015;48.670;9.060;2024-02-26T02:20:19;2.30;;;2.20;;
4001;SDS011;2015;48.670;9.060;2024-02-26T02:22:55;2.43;;;2.33;;
4001;SDS011;2015;48.670;9.060;2024-02-26T02:25:27;2.17;;;2.07;;
4001;SDS011;2015;48.670;9.060;2024-02-26T02:27:59;2.10;;;2.00;;
4001;SDS011;2015;48.670;9.060;2024-02-26T02:30:31;2.20;;;2.10;;
4001;SDS011;2015;48.670;9.060;2024-02-26T02:33:04;2.87;;;2.77;;
4001;SDS011;2015;48.670;9.060;2024-02-26T02:35:37;2.90;;;2.70;;
4001;SDS011;2015;48.670;9.060;2024-02-26T02:38:09;3.10;;;2.90;;
4001;SDS011;2015;48.670;9.060;2024-02-26T02:40:41;3.43;;;3.00;;
4001;SDS011;2015;48.670;9.060;2024-02-26T02:43:13;2.33;;;2.23;;
4001;SDS011;2015;48.670;9.060;2024-02-26T02:45:45;2.92;;;1.92;;
4001;SDS011;2015;48.670;9.060;2024-02-26T02:48:16;2.63;;;2.53;;
4001;SDS011;2015;48.670;9.060;2024-02-26T02:50:48;14.33;;;2.80;;
4001;SDS011;2015;48.670;9.060;2024-02-26T02:53:20;2.80;;;2.70;;
4001;SDS011;2015;48.670;9.060;2024-02-26T02:55:52;2.20;;;2.10;;
4001;SDS011;2015;48.670;9.060;2024-02-26T02:58:24;2.60;;;2.50;;
4001;SDS011;2015;48.670;9.060;2024-02-26T03:00:56;2.60;;;2.50;;
4001;SDS011;2015;48.670;9.060;2024-02-26T03:03:27;3.07;;;2.50;;
4001;SDS011;2015;48.670;9.060;2024-02-26T03:06:00;2.07;;;1.93;;
4001;SDS011;2015;48.670;9.060;2024-02-26T03:08:32;2.37;;;2.00;;
4001;SDS011;2015;48.670;9.060;2024-02-26T03:11:04;3.17;;;2.63;;
4001;SDS011;2015;48.670;9.060;2024-02-26T03:13:36;2.70;;;2.50;;
4001;SDS011;2015;48.670;9.060;2024-02-26T03:16:08;2.43;;;2.33;;
4001;SDS011;2015;48.670;9.060;2024-02-26T03:18:40;2.20;;;2.10;;
4001;SDS011;2015;48.670;9.060;2024-02-26T03:21:12;1.70;;;1.60;;
4001;SDS011;2015;48.670;9.060;2024-02-26T03:23:44;2.70;;;2.50;;
4001;SDS011;2015;48.670;9.060;2024-02-26T03:26:16;2.53;;;2.33;;
4001;SDS011;2015;48.670;9.060;2024-02-26T03:28:48;2.23;;;2.13;;
4001;SDS011;2015;48.670;9.060;2024-02-26T03:31:19;2.03;;;1.93;;
4001;SDS011;2015;48.670;9.060;2024-02-26T03:33:53;7.17;;;2.40;;
4001;SDS011;2015;48.670;9.060;2024-02-26T03:36:25;2.63;;;2.47;;
4001;SDS011;2015;48.670;9.060;2024-02-26T03:38:57;1.97;;;1.87;;
4001;SDS011;2015;48.670;9.060;2024-02-26T03:41:30;2.70;;;2.60;;
4001;SDS011;2015;48.670;9.060;2024-02-26T03:44:03;2.50;;;2.40;;
4001;SDS011;2015;48.670;9.060;2024-02-26T03:46:35;3.00;;;2.67;;
4001;SDS011;2015;48.670;9.060;2024-02-26T03:49:07;2.70;;;2.60;;
4001;SDS011;2015;48.670;9.060;2024-02-26T03:51:38;3.07;;;2.97;;
4001;SDS011;2015;48.670;9.060;2024-02-26T03:54:10;3.10;;;2.50;;
4001;SDS011;2015;48.670;9.060;2024-02-26T03:56:42;1.60;;;1.40;;
4001;SDS011;2015;48.670;9.060;2024-02-26T03:59:14;2.00;;;1.90;;
4001;SDS011;2015;48.670;9.060;2024-02-26T04:01:46;2.20;;;2.10;;
4001;SDS011;2015;48.670;9.060;2024-02-26T04:04:21;2.53;;;2.33;;
4001;SDS011;2015;48.670;9.060;2024-02-26T04:06:53;2.40;;;2.30;;
4001;SDS011;2015;48.670;9.060;2024-02-26T04:09:24;2.03;;;1.93;;
4001;SDS011;2015;48.670;9.060;2024-02-26T04:11:56;2.17;;;2.07;;
4001;SDS011;2015;48.670;9.060;2024-02-26T04:14:28;2.53;;;1.90;;
4001;SDS011;2015;48.670;9.060;2024-02-26T04:17:00;1.77;;;1.67;;
4001;SDS011;2015;48.670;9.060;2024-02-26T04:19:32;1.83;;;1.73;;
4001;SDS011;2015;48.670;9.060;2024-02-26T04:22:04;2.30;;;2.20;;
4001;SDS011;2015;48.670;9.060;2024-02-26T04:24:36;2.83;;;2.37;;
4001;SDS011;2015;48.670;9.060;2024-02-26T04:27:08;2.40;;;2.30;;
4001;SDS011;2015;48.670;9.060;2024-02-26T04:29:40;2.63;;;2.40;;
4001;SDS011;2015;48.670;9.060;2024-02-26T04:32:12;3.13;;;2.93;;
4001;SDS011;2015;48.670;9.060;2024-02-26T04:34:44;3.00;;;2.10;;
4001;SDS011;2015;48.670;9.060;2024-02-26T04:37:16;2.20;;;2.10;;
4001;SDS011;2015;48.670;9.060;2024-02-26T04:39:47;2.37;;;2.27;;
4001;SDS011;2015;48.670;9.060;2024-02-26T04:42:21;2.73;;;2.53;;
4001;SDS011;2015;48.670;9.060;2024-02-26T04:44:56;2.57;;;2.47;;
4001;SDS011;2015;48.670;9.060;2024-02-26T04:47:28;2.83;;;2.30;;
4001;SDS011;2015;48.670;9.060;2024-02-26T04:50:01;2.38;;;2.28;;
4001;SDS011;2015;48.670;9.060;2024-02-26T04:52:33;2.60;;;2.43;;
4001;SDS011;2015;48.670;9.060;2024-02-26T04:55:05;2.73;;;2.50;;
4001;SDS011;2015;48.670;9.060;2024-02-26T04:57:37;2.50;;;2.40;;
4001;SDS011;2015;48.670;9.060;2024-02-26T05:00:09;2.30;;;2.20;;
4001;SDS011;2015;48.670;9.060;2024-02-26T05:02:42;2.77;;;2.60;;
4001;SDS011;2015;48.670;9.060;2024-02-26T05:05:14;3.20;;;3.00;;
4001;SDS011;2015;48.670;9.060;2024-02-26T05:07:46;2.35;;;1.90;;
4001;SDS011;2015;48.670;9.060;2024-02-26T05:10:17;2.73;;;2.63;;
4001;SDS011;2015;48.670;9.060;2024-02-26T05:12:49;2.30;;;2.20;;
4001;SDS011;2015;48.670;9.060;2024-02-26T05:15:21;2.93;;;2.73;;
4001;SDS011;2015;48.670;9.060;2024-02-26T05:17:53;2.87;;;2.77;;
4001;SDS011;2015;48.670;9.060;2024-02-26T05:20:25;3.20;;;2.83;;
4001;SDS011;2015;48.670;9.060;2024-02-26T05:22:57;2.73;;;2.63;;
4001;SDS011;2015;48.670;9.060;2024-02-26T05:25:30;2.73;;;2.53;;
4001;SDS011;2015;48.670;9.060;2024-02-26T05:28:02;2.33;;;2.23;;
4001;SDS011;2015;48.670;9.060;2024-02-26T05:30:34;2.90;;;2.70;;
4001;SDS011;2015;48.670;9.060;2024-02-26T05:33:06;2.07;;;1.87;;
4001;SDS011;2015;48.670;9.060;2024-02-26T05:35:38;2.80;;;2.67;;
4001;SDS011;2015;48.670;9.060;2024-02-26T05:38:11;2.90;;;2.80;;
4001;SDS011;2015;48.670;9.060;2024-02-26T05:40:43;5.00;;;3.00;;
4001;SDS011;2015;48.670;9.060;2024-02-26T05:43:17;3.27;;;2.27;;
4001;SDS011;2015;48.670;9.060;2024-02-26T05:45:49;2.50;;;2.30;;
4001;SDS011;2015;48.670;9.060;2024-02-26T05:48:21;2.40;;;2.30;;
4001;SDS011;2015;48.670;9.060;2024-02-26T05:50:53;2.70;;;2.50;;
4001;SDS011;2015;48.670;9.060;2024-02-26T05:53:25;2.63;;;2.53;;
4001;SDS011;2015;48.670;9.060;2024-02-26T05:55:56;2.73;;;2.53;;
4001;SDS011;2015;48.670;9.060;2024-02-26T05:58:28;2.87;;;2.67;;
4001;SDS011;2015;48.670;9.060;2024-02-26T06:01:00;3.72;;;2.40;;
4001;SDS011;2015;48.670;9.060;2024-02-26T06:03:32;1.93;;;1.83;;
4001;SDS011;2015;48.670;9.060;2024-02-26T06:06:04;2.60;;;2.50;;
4001;SDS011;2015;48.670;9.060;2024-02-26T06:08:36;2.30;;;2.20;;
4001;SDS011;2015;48.670;9.060;2024-02-26T06:11:08;2.50;;;2.40;;
4001;SDS011;2015;48.670;9.060;2024-02-26T06:13:40;2.70;;;2.47;;
4001;SDS011;2015;48.670;9.060;2024-02-26T06:16:12;2.60;;;2.50;;
4001;SDS011;2015;48.670;9.060;2024-02-26T06:18:44;3.07;;;2.87;;
4001;SDS011;2015;48.670;9.060;2024-02-26T06:21:16;2.43;;;2.33;;
4001;SDS011;2015;48.670;9.060;2024-02-26T06:23:48;2.57;;;2.40;;
4001;SDS011;2015;48.670;9.060;2024-02-26T06:26:20;2.73;;;2.53;;
4001;SDS011;2015;48.670;9.060;2024-02-26T06:28:52;2.50;;;2.30;;
4001;SDS011;2015;48.670;9.060;2024-02-26T06:31:25;2.70;;;2.60;;
4001;SDS011;2015;48.670;9.060;2024-02-26T06:33:58;3.33;;;3.13;;
4001;SDS011;2015;48.670;9.060;2024-02-26T06:36:31;3.67;;;3.47;;
4001;SDS011;2015;48.670;9.060;2024-02-26T06:39:03;3.83;;;3.53;;
4001;SDS011;2015;48.670;9.060;2024-02-26T06:41:36;3.53;;;3.23;;
4001;SDS011;2015;48.670;9.060;2024-02-26T06:44:10;3.33;;;3.13;;
4001;SDS011;2015;48.670;9.060;2024-02-26T06:46:42;3.67;;;3.47;;
4001;SDS011;2015;48.670;9.060;2024-02-26T06:49:14;2.20;;;2.10;;
4001;SDS011;2015;48.670;9.060;2024-02-26T06:51:46;2.37;;;2.27;;
4001;SDS011;2015;48.670;9.060;2024-02-26T06:54:17;2.93;;;2.80;;
4001;SDS011;2015;48.670;9.060;2024-02-26T06:56:49;2.63;;;2.43;;
4001;SDS011;2015;48.670;9.060;2024-02-26T06:59:21;2.60;;;2.40;;
4001;SDS011;2015;48.670;9.060;2024-02-26T07:01:55;2.70;;;2.50;;
4001;SDS011;2015;48.670;9.060;2024-02-26T07:04:26;2.13;;;2.03;;
4001;SDS011;2015;48.670;9.060;2024-02-26T07:06:58;2.73;;;2.63;;
4001;SDS011;2015;48.670;9.060;2024-02-26T07:09:31;2.67;;;2.47;;
4001;SDS011;2015;48.670;9.060;2024-02-26T07:12:02;3.00;;;2.80;;
4001;SDS011;2015;48.670;9.060;2024-02-26T07:14:34;2.73;;;2.60;;
4001;SDS011;2015;48.670;9.060;2024-02-26T07:17:08;2.90;;;2.80;;
4001;SDS011;2015;48.670;9.060;2024-02-26T07:19:40;4.33;;;2.60;;
4001;SDS011;2015;48.670;9.060;2024-02-26T07:22:12;2.40;;;2.30;;
4001;SDS011;2015;48.670;9.060;2024-02-26T07:24:45;3.67;;;2.60;;
4001;SDS011;2015;48.670;9.060;2024-02-26T07:27:18;3.67;;;3.38;;
4001;SDS011;2015;48.670;9.060;2024-02-26T07:29:50;7.50;;;3.90;;
4001;SDS011;2015;48.670;9.060;2024-02-26T07:32:21;4.97;;;3.90;;
4001;SDS011;2015;48.670;9.060;2024-02-26T07:34:53;5.70;;;5.20;;
4001;SDS011;2015;48.670;9.060;2024-02-26T07:37:25;5.47;;;4.73;;
4001;SDS011;2015;48.670;9.060;2024-02-26T07:39:57;5.63;;;5.23;;
4001;SDS011;2015;48.670;9.060;2024-02-26T07:42:29;4.80;;;4.50;;
4001;SDS011;2015;48.670;9.060;2024-02-26T07:45:02;5.27;;;4.90;;
4001;SDS011;2015;48.670;9.060;2024-02-26T07:47:34;4.10;;;3.90;;
4001;SDS011;2015;48.670;9.060;2024-02-26T07:50:07;4.40;;;4.10;;
4001;SDS011;2015;48.670;9.060;2024-02-26T07:52:40;4.67;;;4.27;;
4001;SDS011;2015;48.670;9.060;2024-02-26T07:55:12;3.60;;;3.40;;
4001;SDS011;2015;48.670;9.060;2024-02-26T07:57:44;4.17;;;3.93;;
4001;SDS011;2015;48.670;9.060;2024-02-26T08:00:16;3.27;;;3.10;;
4001;SDS011;2015;48.670;9.060;2024-02-26T08:02:48;4.97;;;4.57;;
4001;SDS011;2015;48.670;9.060;2024-02-26T08:05:20;4.50;;;4.20;;
4001;SDS011;2015;48.670;9.060;2024-02-26T08:07:52;4.07;;;3.77;;
4001;SDS011;2015;48.670;9.060;2024-02-26T08:10:24;3.50;;;3.30;;
4001;SDS011;2015;48.670;9.060;2024-02-26T08:12:57;4.10;;;3.27;;
4001;SDS011;2015;48.670;9.060;2024-02-26T08:15:36;4.13;;;3.83;;
4001;SDS011;2015;48.670;9.060;2024-02-26T08:18:11;2.50;;;2.30;;
4001;SDS011;2015;48.670;9.060;2024-02-26T08:20:43;2.50;;;2.40;;
4001;SDS011;2015;48.670;9.060;2024-02-26T08:23:15;4.03;;;3.83;;
4001;SDS011;2015;48.670;9.060;2024-02-26T08:25:46;2.17;;;2.07;;
4001;SDS011;2015;48.670;9.060;2024-02-26T08:28:19;2.57;;;2.43;;
4001;SDS011;2015;48.670;9.060;2024-02-26T08:30:51;4.00;;;2.07;;
4001;SDS011;2015;48.670;9.060;2024-02-26T08:33:22;2.77;;;2.57;;
4001;SDS011;2015;48.670;9.060;2024-02-26T08:35:54;2.00;;;1.90;;
4001;SDS011;2015;48.670;9.060;2024-02-26T08:38:26;2.10;;;1.90;;
4001;SDS011;2015;48.670;9.060;2024-02-26T08:40:58;2.17;;;2.07;;
4001;SDS011;2015;48.670;9.060;2024-02-26T08:43:29;2.30;;;2.20;;
4001;SDS011;2015;48.670;9.060;2024-02-26T08:46:01;2.63;;;2.53;;
4001;SDS011;2015;48.670;9.060;2024-02-26T08:48:34;2.37;;;2.27;;
4001;SDS011;2015;48.670;9.060;2024-02-26T08:51:06;2.87;;;2.53;;
4001;SDS011;2015;48.670;9.060;2024-02-26T08:53:39;3.07;;;2.87;;
4001;SDS011;2015;48.670;9.060;2024-02-26T08:56:14;2.37;;;2.13;;
4001;SDS011;2015;48.670;9.060;2024-02-26T08:58:49;2.60;;;2.40;;
4001;SDS011;2015;48.670;9.060;2024-02-26T09:01:24;2.10;;;2.00;;
4001;SDS011;2015;48.670;9.060;2024-02-26T09:03:56;2.53;;;2.33;;
4001;SDS011;2015;48.670;9.060;2024-02-26T09:06:28;4.70;;;1.60;;
4001;SDS011;2015;48.670;9.060;2024-02-26T09:09:01;2.10;;;2.00;;
4001;SDS011;2015;48.670;9.060;2024-02-26T09:11:35;2.03;;;1.93;;
4001;SDS011;2015;48.670;9.060;2024-02-26T09:14:06;1.60;;;1.50;;
4001;SDS011;2015;48.670;9.060;2024-02-26T09:16:38;1.75;;;1.65;;
4001;SDS011;2015;48.670;9.060;2024-02-26T09:19:10;1.80;;;1.70;;
4001;SDS011;2015;48.670;9.060;2024-02-26T09:21:43;2.58;;;2.40;;
4001;SDS011;2015;48.670;9.060;2024-02-26T09:24:15;2.10;;;2.00;;
4001;SDS011;2015;48.670;9.060;2024-02-26T09:26:47;2.37;;;2.20;;
4001;SDS011;2015;48.670;9.060;2024-02-26T09:29:19;2.17;;;2.07;;
4001;SDS011;2015;48.670;9.060;2024-02-26T09:31:51;2.40;;;2.20;;
4001;SDS011;2015;48.670;9.060;2024-02-26T09:34:22;2.17;;;2.07;;
4001;SDS011;2015;48.670;9.060;2024-02-26T09:36:54;2.43;;;2.33;;
4001;SDS011;2015;48.670;9.060;2024-02-26T09:39:35;2.43;;;2.33;;
4001;SDS011;2015;48.670;9.060;2024-02-26T09:42:08;2.53;;;2.43;;
4001;SDS011;2015;48.670;9.060;2024-02-26T09:44:43;2.10;;;2.00;;
4001;SDS011;2015;48.670;9.060;2024-02-26T09:47:15;1.90;;;1.80;;
4001;SDS011;2015;48.670;9.060;2024-02-26T09:49:48;1.90;;;1.80;;
4001;SDS011;2015;48.670;9.060;2024-02-26T09:52:23;2.07;;;1.97;;
4001;SDS011;2015;48.670;9.060;2024-02-26T09:54:56;2.43;;;2.23;;
4001;SDS011;2015;48.670;9.060;2024-02-26T09:57:28;2.30;;;2.20;;
4001;SDS011;2015;48.670;9.060;2024-02-26T10:00:02;2.03;;;1.93;;
4001;SDS011;2015;48.670;9.060;2024-02-26T10:02:38;1.73;;;1.63;;
4001;SDS011;2015;48.670;9.060;2024-02-26T10:05:11;1.97;;;1.87;;
4001;SDS011;2015;48.670;9.060;2024-02-26T10:07:45;2.07;;;1.97;;
4001;SDS011;2015;48.670;9.060;2024-02-26T10:10:17;1.90;;;1.80;;
4001;SDS011;2015;48.670;9.060;2024-02-26T10:12:50;1.80;;;1.70;;
4001;SDS011;2015;48.670;9.060;2024-02-26T10:15:22;1.80;;;1.70;;
4001;SDS011;2015;48.670;9.060;2024-02-26T10:17:54;1.57;;;1.47;;
4001;SDS011;2015;48.670;9.060;2024-02-26T10:20:26;1.70;;;1.60;;
4001;SDS011;2015;48.670;9.060;2024-02-26T10:23:03;1.60;;;1.50;;
4001;SDS011;2015;48.670;9.060;2024-02-26T10:25:36;1.53;;;1.43;;
4001;SDS011;2015;48.670;9.060;2024-02-26T10:28:08;1.90;;;1.80;;
4001;SDS011;2015;48.670;9.060;2024-02-26T10:30:41;2.00;;;1.90;;
4001;SDS011;2015;48.670;9.060;2024-02-26T10:33:13;2.13;;;1.93;;
4001;SDS011;2015;48.670;9.060;2024-02-26T10:35:46;2.63;;;2.07;;
4001;SDS011;2015;48.670;9.060;2024-02-26T10:38:19;2.03;;;1.90;;
4001;SDS011;2015;48.670;9.060;2024-02-26T10:40:51;2.40;;;2.30;;
4001;SDS011;2015;48.670;9.060;2024-02-26T10:43:25;2.50;;;2.40;;
4001;SDS011;2015;48.670;9.060;2024-02-26T10:45:57;2.30;;;2.20;;
4001;SDS011;2015;48.670;9.060;2024-02-26T10:48:29;2.73;;;2.53;;
4001;SDS011;2015;48.670;9.060;2024-02-26T10:51:02;2.80;;;2.70;;
4001;SDS011;2015;48.670;9.060;2024-02-26T10:53:35;2.23;;;2.13;;
4001;SDS011;2015;48.670;9.060;2024-02-26T10:56:08;3.77;;;3.00;;
4001;SDS011;2015;48.670;9.060;2024-02-26T10:58:41;2.63;;;2.42;;
4001;SDS011;2015;48.670;9.060;2024-02-26T11:01:16;3.83;;;3.50;;
4001;SDS011;2015;48.670;9.060;2024-02-26T11:03:50;3.57;;;3.27;;
4001;SDS011;2015;48.670;9.060;2024-02-26T11:06:23;2.53;;;2.43;;
4001;SDS011;2015;48.670;9.060;2024-02-26T11:08:57;2.80;;;2.70;;
4001;SDS011;2015;48.670;9.060;2024-02-26T11:11:31;2.27;;;2.17;;
4001;SDS011;2015;48.670;9.060;2024-02-26T11:14:06;2.53;;;2.33;;
4001;SDS011;2015;48.670;9.060;2024-02-26T11:16:40;2.17;;;2.07;;
4001;SDS011;2015;48.670;9.060;2024-02-26T11:19:14;2.50;;;2.40;;
4001;SDS011;2015;48.670;9.060;2024-02-26T11:21:47;3.07;;;2.83;;
4001;SDS011;2015;48.670;9.060;2024-02-26T11:24:19;3.20;;;2.90;;
4001;SDS011;2015;48.670;9.060;2024-02-26T11:26:53;2.23;;;2.13;;
4001;SDS011;2015;48.670;9.060;2024-02-26T11:29:34;3.30;;;3.00;;
4001;SDS011;2015;48.670;9.060;2024-02-26T11:32:10;3.67;;;3.33;;
4001;SDS011;2015;48.670;9.060;2024-02-26T11:34:43;2.60;;;2.50;;
4001;SDS011;2015;48.670;9.060;2024-02-26T11:37:16;2.30;;;2.20;;
4001;SDS011;2015;48.670;9.060;2024-02-26T11:39:48;2.60;;;2.50;;
4001;SDS011;2015;48.670;9.060;2024-02-26T11:42:23;4.80;;;2.40;;
4001;SDS011;2015;48.670;9.060;2024-02-26T11:44:57;2.47;;;2.37;;
4001;SDS011;2015;48.670;9.060;2024-02-26T11:47:32;2.53;;;2.33;;
4001;SDS011;2015;48.670;9.060;2024-02-26T11:59:10;3.70;;;2.20;;
4001;SDS011;2015;48.670;9.060;2024-02-26T12:01:45;2.00;;;1.90;;
4001;SDS011;2015;48.670;9.060;2024-02-26T12:04:22;2.60;;;2.27;;
4001;SDS011;2015;48.670;9.060;2024-02-26T12:07:01;2.63;;;2.50;;
4001;SDS011;2015;48.670;9.060;2024-02-26T12:09:36;3.07;;;2.87;;
4001;SDS011;2015;48.670;9.060;2024-02-26T12:12:11;2.40;;;2.30;;
4001;SDS011;2015;48.670;9.060;2024-02-26T12:14:53;2.93;;;2.83;;
4001;SDS011;2015;48.670;9.060;2024-02-26T12:17:27;2.70;;;2.60;;
4001;SDS011;2015;48.670;9.060;2024-02-26T12:20:12;2.73;;;2.63;;
4001;SDS011;2015;48.670;9.060;2024-02-26T12:22:45;3.77;;;3.57;;
4001;SDS011;2015;48.670;9.060;2024-02-26T12:25:22;2.57;;;2.37;;
4001;SDS011;2015;48.670;9.060;2024-02-26T12:27:57;2.60;;;2.40;;
4001;SDS011;2015;48.670;9.060;2024-02-26T12:30:29;2.80;;;2.40;;
4001;SDS011;2015;48.670;9.060;2024-02-26T12:33:02;3.03;;;2.87;;
4001;SDS011;2015;48.670;9.060;2024-02-26T12:35:35;3.20;;;3.00;;
4001;SDS011;2015;48.670;9.060;2024-02-26T12:38:07;2.80;;;2.60;;
4001;SDS011;2015;48.670;9.060;2024-02-26T12:40:39;3.00;;;2.80;;
4001;SDS011;2015;48.670;9.060;2024-02-26T12:43:11;2.63;;;2.00;;
4001;SDS011;2015;48.670;9.060;2024-02-26T12:45:44;2.37;;;2.17;;
4001;SDS011;2015;48.670;9.060;2024-02-26T12:48:18;3.20;;;3.00;;
4001;SDS011;2015;48.670;9.060;2024-02-26T12:50:52;2.13;;;1.93;;
4001;SDS011;2015;48.670;9.060;2024-02-26T12:53:25;2.40;;;2.20;;
4001;SDS011;2015;48.670;9.060;2024-02-26T12:55:58;2.20;;;2.10;;
4001;SDS011;2015;48.670;9.060;2024-02-26T12:58:30;1.73;;;1.63;;
4001;SDS011;2015;48.670;9.060;2024-02-26T13:01:03;2.27;;;1.80;;
4001;SDS011;2015;48.670;9.060;2024-02-26T13:03:35;1.60;;;1.07;;
4001;SDS011;2015;48.670;9.060;2024-02-26T13:06:08;2.63;;;1.40;;
4001;SDS011;2015;48.670;9.060;2024-02-26T13:08:40;1.50;;;1.40;;
4001;SDS011;2015;48.670;9.060;2024-02-26T13:11:12;1.40;;;1.30;;
4001;SDS011;2015;48.670;9.060;2024-02-26T13:13:47;1.17;;;1.07;;
4001;SDS011;2015;48.670;9.060;2024-02-26T13:16:20;1.30;;;1.20;;
4001;SDS011;2015;48.670;9.060;2024-02-26T13:18:55;1.50;;;1.40;;
4001;SDS011;2015;48.670;9.060;2024-02-26T13:21:27;1.87;;;1.77;;
4001;SDS011;2015;48.670;9.060;2024-02-26T13:23:59;1.90;;;1.10;;
4001;SDS011;2015;48.670;9.060;2024-02-26T13:26:31;1.33;;;1.23;;
4001;SDS011;2015;48.670;9.060;2024-02-26T13:29:04;1.40;;;1.30;;
4001;SDS011;2015;48.670;9.060;2024-02-26T13:31:39;2.03;;;1.70;;
4001;SDS011;2015;48.670;9.060;2024-02-26T13:34:24;1.80;;;1.70;;
4001;SDS011;2015;48.670;9.060;2024-02-26T13:37:01;1.23;;;1.13;;
4001;SDS011;2015;48.670;9.060;2024-02-26T13:39:33;1.40;;;1.10;;
4001;SDS011;2015;48.670;9.060;2024-02-26T13:42:08;1.67;;;1.57;;
4001;SDS011;2015;48.670;9.060;2024-02-26T13:44:42;1.57;;;1.47;;
4001;SDS011;2015;48.670;9.060;2024-02-26T13:47:14;0.90;;;0.60;;
4001;SDS011;2015;48.670;9.060;2024-02-26T13:49:45;1.20;;;1.10;;
4001;SDS011;2015;48.670;9.060;2024-02-26T13:52:17;1.00;;;0.90;;
4001;SDS011;2015;48.670;9.060;2024-02-26T13:54:51;1.10;;;0.80;;
4001;SDS011;2015;48.670;9.060;2024-02-26T13:57:23;1.30;;;1.20;;
4001;SDS011;2015;48.670;9.060;2024-02-26T13:59:55;1.30;;;1.20;;
4001;SDS011;2015;48.670;9.060;2024-02-26T14:02:26;2.23;;;1.40;;
4001;SDS011;2015;48.670;9.060;2024-02-26T14:04:58;2.00;;;1.17;;
4001;SDS011;2015;48.670;9.060;2024-02-26T14:07:30;1.10;;;1.00;;
4001;SDS011;2015;48.670;9.060;2024-02-26T14:10:05;1.20;;;1.10;;
4001;SDS011;2015;48.670;9.060;2024-02-26T14:12:38;1.10;;;1.00;;
4001;SDS011;2015;48.670;9.060;2024-02-26T14:15:10;1.30;;;1.20;;
4001;SDS011;2015;48.670;9.060;2024-02-26T14:17:43;1.67;;;0.83;;
4001;SDS011;2015;48.670;9.060;2024-02-26T14:20:15;1.10;;;1.00;;
4001;SDS011;2015;48.670;9.060;2024-02-26T14:22:46;1.07;;;0.97;;
4001;SDS011;2015;48.670;9.060;2024-02-26T14:25:19;1.20;;;1.10;;
4001;SDS011;2015;48.670;9.060;2024-02-26T14:27:59;1.30;;;1.20;;
4001;SDS011;2015;48.670;9.060;2024-02-26T14:30:31;1.20;;;1.10;;
4001;SDS011;2015;48.670;9.060;2024-02-26T14:33:04;3.77;;;1.13;;
4001;SDS011;2015;48.670;9.060;2024-02-26T14:35:36;0.87;;;0.87;;
4001;SDS011;2015;48.670;9.060;2024-02-26T14:38:08;0.93;;;0.93;;
4001;SDS011;2015;48.670;9.060;2024-02-26T14:40:39;1.30;;;1.20;;
4001;SDS011;2015;48.670;9.060;2024-02-26T14:43:11;1.13;;;1.03;;
4001;SDS011;2015;48.670;9.060;2024-02-26T14:45:43;1.20;;;1.10;;
4001;SDS011;2015;48.670;9.060;2024-02-26T14:48:15;1.10;;;1.00;;
4001;SDS011;2015;48.670;9.060;2024-02-26T14:50:47;0.90;;;0.90;;
4001;SDS011;2015;48.670;9.060;2024-02-26T14:53:19;1.90;;;1.33;;
4001;SDS011;2015;48.670;9.060;2024-02-26T14:55:51;1.47;;;1.37;;
4001;SDS011;2015;48.670;9.060;2024-02-26T14:58:22;1.60;;;1.50;;
4001;SDS011;2015;48.670;9.060;2024-02-26T15:00:54;1.33;;;1.23;;
4001;SDS011;2015;48.670;9.060;2024-02-26T15:03:26;1.20;;;1.10;;
4001;SDS011;2015;48.670;9.060;2024-02-26T15:05:58;1.83;;;1.70;;
4001;SDS011;2015;48.670;9.060;2024-02-26T15:08:31;2.83;;;1.57;;
4001;SDS011;2015;48.670;9.060;2024-02-26T15:11:02;1.80;;;1.70;;
4001;SDS011;2015;48.670;9.060;2024-02-26T15:13:35;2.17;;;1.83;;
4001;SDS011;2015;48.670;9.060;2024-02-26T15:16:07;1.73;;;1.63;;
4001;SDS011;2015;48.670;9.060;2024-02-26T15:18:40;1.90;;;1.80;;
4001;SDS011;2015;48.670;9.060;2024-02-26T15:21:12;2.30;;;1.63;;
4001;SDS011;2015;48.670;9.060;2024-02-26T15:23:44;4.20;;;1.70;;
4001;SDS011;2015;48.670;9.060;2024-02-26T15:26:34;1.60;;;1.50;;
4001;SDS011;2015;48.670;9.060;2024-02-26T15:29:06;9.43;;;2.10;;
4001;SDS011;2015;48.670;9.060;2024-02-26T15:31:40;1.83;;;1.70;;
4001;SDS011;2015;48.670;9.060;2024-02-26T15:34:11;2.13;;;2.03;;
4001;SDS011;2015;48.670;9.060;2024-02-26T15:36:44;7.97;;;1.60;;
4001;SDS011;2015;48.670;9.060;2024-02-26T15:39:15;2.10;;;1.30;;
4001;SDS011;2015;48.670;9.060;2024-02-26T15:41:47;2.23;;;1.77;;
4001;SDS011;2015;48.670;9.060;2024-02-26T15:44:19;1.70;;;1.60;;
4001;SDS011;2015;48.670;9.060;2024-02-26T15:46:51;2.60;;;1.70;;
4001;SDS011;2015;48.670;9.060;2024-02-26T15:49:22;3.37;;;1.87;;
4001;SDS011;2015;48.670;9.060;2024-02-26T15:51:55;2.37;;;2.17;;
4001;SDS011;2015;48.670;9.060;2024-02-26T15:54:26;2.80;;;2.60;;
4001;SDS011;2015;48.670;9.060;2024-02-26T15:56:58;2.17;;;2.07;;